createdAt,value
2023-03-26T00:01:41.702Z,5.00
2023-03-26T00:04:10.666Z,4.60
2023-03-26T00:06:40.088Z,4.90
2023-03-26T00:09:10.829Z,5.10
2023-03-26T00:11:38.760Z,4.20
2023-03-26T00:14:06.733Z,5.50
2023-03-26T00:16:34.756Z,5.50
2023-03-26T00:19:02.796Z,6.60
2023-03-26T00:21:31.788Z,5.90
2023-03-26T00:24:04.622Z,6.40
2023-03-26T00:26:34.204Z,5.60
2023-03-26T00:29:03.778Z,5.80
2023-03-26T00:31:33.031Z,6.40
2023-03-26T00:34:03.713Z,6.30
2023-03-26T00:36:32.184Z,5.70
2023-03-26T00:39:01.311Z,5.90
2023-03-26T00:41:31.060Z,6.30
2023-03-26T00:44:00.492Z,6.60
2023-03-26T00:46:31.491Z,6.70
2023-03-26T00:49:00.285Z,6.50
2023-03-26T00:51:28.821Z,6.50
2023-03-26T00:53:57.964Z,6.00
2023-03-26T00:56:26.470Z,6.20
2023-03-26T00:58:54.406Z,6.20
2023-03-26T01:01:29.201Z,5.70
2023-03-26T01:04:08.299Z,5.60
2023-03-26T01:06:42.254Z,6.30
2023-03-26T01:09:16.052Z,4.50
2023-03-26T01:11:45.343Z,4.30
2023-03-26T01:14:17.903Z,4.30
2023-03-26T01:16:55.205Z,4.80
2023-03-26T01:19:39.337Z,7.10
2023-03-26T01:22:11.211Z,5.80
2023-03-26T01:24:40.377Z,5.00
2023-03-26T01:27:17.999Z,5.40
2023-03-26T01:29:56.672Z,5.80
2023-03-26T01:32:33.765Z,5.60
2023-03-26T01:35:15.107Z,5.30
2023-03-26T01:37:43.003Z,5.10
2023-03-26T01:40:23.729Z,5.60
2023-03-26T01:43:11.010Z,5.90
2023-03-26T01:45:42.700Z,7.60
2023-03-26T01:48:10.817Z,7.10
2023-03-26T01:50:38.893Z,6.90
2023-03-26T01:53:09.002Z,5.70
2023-03-26T01:56:02.423Z,6.00
2023-03-26T01:58:49.885Z,6.50
2023-03-26T02:01:30.435Z,6.60
2023-03-26T02:04:39.775Z,8.90
2023-03-26T02:07:29.498Z,11.10
2023-03-26T02:10:06.948Z,13.50
2023-03-26T02:12:35.570Z,15.60
2023-03-26T02:15:04.757Z,17.00
2023-03-26T02:17:33.312Z,17.20
2023-03-26T02:20:10.764Z,16.60
2023-03-26T02:22:45.973Z,16.70
2023-03-26T02:25:17.907Z,18.20
2023-03-26T02:27:47.163Z,18.60
2023-03-26T02:30:29.773Z,18.50
2023-03-26T02:33:00.164Z,15.40
2023-03-26T02:35:34.664Z,17.50
2023-03-26T02:38:03.043Z,15.70
2023-03-26T02:40:31.045Z,16.50
2023-03-26T02:42:59.107Z,17.50
2023-03-26T02:45:28.766Z,17.70
2023-03-26T02:48:28.530Z,19.60
2023-03-26T02:51:14.711Z,17.30
2023-03-26T02:54:03.937Z,15.40
2023-03-26T02:56:56.279Z,13.20
2023-03-26T02:59:36.019Z,12.20
2023-03-26T03:02:33.141Z,13.00
2023-03-26T03:05:10.662Z,9.80
2023-03-26T03:07:39.124Z,8.60
2023-03-26T03:10:13.820Z,8.60
2023-03-26T03:13:00.514Z,7.70
2023-03-26T03:15:28.613Z,7.00
2023-03-26T03:17:57.017Z,6.50
2023-03-26T03:20:27.386Z,6.30
2023-03-26T03:22:56.064Z,6.20
2023-03-26T03:25:26.141Z,5.00
2023-03-26T03:27:54.619Z,5.20
2023-03-26T03:30:22.777Z,6.90
2023-03-26T03:33:21.479Z,5.70
2023-03-26T03:35:50.609Z,4.50
2023-03-26T03:38:19.625Z,4.80
2023-03-26T03:40:49.843Z,5.10
2023-03-26T03:43:17.864Z,6.40
2023-03-26T03:45:57.675Z,6.50
2023-03-26T03:48:48.279Z,6.80
2023-03-26T03:51:18.426Z,7.40
2023-03-26T03:53:58.605Z,7.30
2023-03-26T03:56:40.706Z,7.00
2023-03-26T03:59:27.115Z,6.30
2023-03-26T04:01:55.112Z,5.60
2023-03-26T04:04:34.787Z,5.50
2023-03-26T04:07:07.428Z,5.60
2023-03-26T04:09:51.224Z,5.40
2023-03-26T04:12:19.982Z,6.00
2023-03-26T04:14:57.209Z,5.90
2023-03-26T04:17:26.240Z,5.50
2023-03-26T04:19:56.304Z,6.00
2023-03-26T04:22:34.770Z,5.90
2023-03-26T04:25:05.364Z,6.60
2023-03-26T04:27:41.843Z,5.30
2023-03-26T04:30:23.602Z,5.20
2023-03-26T04:33:17.491Z,4.70
2023-03-26T04:35:46.182Z,5.20
2023-03-26T04:38:17.601Z,4.30
2023-03-26T04:40:48.474Z,4.60
2023-03-26T04:43:19.261Z,4.90
2023-03-26T04:46:05.295Z,6.60
2023-03-26T04:48:41.167Z,4.60
2023-03-26T04:51:17.957Z,5.00
2023-03-26T04:53:53.373Z,3.90
2023-03-26T04:56:50.029Z,4.30
2023-03-26T04:59:34.483Z,4.80
2023-03-26T05:02:06.242Z,5.30
2023-03-26T05:04:40.283Z,5.30
2023-03-26T05:07:09.569Z,5.40
2023-03-26T05:09:44.975Z,5.30
2023-03-26T05:12:16.620Z,5.30
2023-03-26T05:15:08.996Z,5.70
2023-03-26T05:17:59.752Z,5.80
2023-03-26T05:20:50.329Z,5.70
2023-03-26T05:23:18.509Z,5.20
2023-03-26T05:25:52.115Z,5.90
2023-03-26T05:28:24.448Z,5.80
2023-03-26T05:30:56.444Z,4.70
2023-03-26T05:33:25.977Z,4.30
2023-03-26T05:36:15.678Z,4.90
2023-03-26T05:39:09.928Z,4.70
2023-03-26T05:42:12.929Z,4.70
2023-03-26T05:44:53.602Z,4.80
2023-03-26T05:47:27.499Z,4.60
2023-03-26T05:49:55.900Z,4.50
2023-03-26T05:52:24.224Z,4.20
2023-03-26T05:55:11.405Z,3.80
2023-03-26T05:57:58.007Z,4.90
2023-03-26T06:00:48.897Z,4.20
2023-03-26T06:03:20.020Z,4.10
2023-03-26T06:06:15.521Z,3.90
2023-03-26T06:09:02.277Z,4.20
2023-03-26T06:11:32.057Z,4.70
2023-03-26T06:14:01.155Z,5.60
2023-03-26T06:16:29.170Z,6.30
2023-03-26T06:19:07.169Z,4.80
2023-03-26T06:21:51.092Z,4.40
2023-03-26T06:24:23.054Z,4.50
2023-03-26T06:27:23.324Z,4.10
2023-03-26T06:30:22.962Z,4.80
2023-03-26T06:33:13.671Z,4.80
2023-03-26T06:35:48.856Z,5.00
2023-03-26T06:38:17.754Z,4.40
2023-03-26T06:40:46.135Z,4.50
2023-03-26T06:43:23.147Z,4.80
2023-03-26T06:45:57.056Z,5.00
2023-03-26T06:48:45.367Z,4.40
2023-03-26T06:51:20.693Z,5.00
2023-03-26T06:54:07.419Z,4.70
2023-03-26T06:57:13.839Z,4.60
2023-03-26T07:00:01.011Z,4.70
2023-03-26T07:02:51.806Z,8.60
2023-03-26T07:05:41.223Z,5.40
2023-03-26T07:08:28.260Z,4.50
2023-03-26T07:11:16.748Z,4.30
2023-03-26T07:14:11.372Z,5.30
2023-03-26T07:16:59.899Z,4.50
2023-03-26T07:19:35.798Z,3.60
2023-03-26T07:22:04.317Z,4.80
2023-03-26T07:24:52.886Z,4.40
2023-03-26T07:27:52.288Z,5.10
2023-03-26T07:30:53.297Z,4.20
2023-03-26T07:33:42.445Z,4.90
2023-03-26T07:36:54.387Z,4.50
2023-03-26T07:39:57.892Z,5.30
2023-03-26T07:43:09.761Z,4.50
2023-03-26T07:45:57.529Z,4.30
2023-03-26T07:48:48.012Z,4.90
2023-03-26T07:51:40.634Z,4.10
2023-03-26T07:54:17.564Z,4.70
2023-03-26T07:57:06.495Z,4.60
2023-03-26T08:00:12.366Z,4.70
2023-03-26T08:03:15.164Z,4.20
2023-03-26T08:06:10.770Z,3.90
2023-03-26T08:09:30.211Z,3.50
2023-03-26T08:12:23.916Z,4.30
2023-03-26T08:15:25.705Z,4.10
2023-03-26T08:18:19.871Z,4.50
2023-03-26T08:20:51.332Z,4.50
2023-03-26T08:23:28.376Z,4.80
2023-03-26T08:26:09.465Z,4.20
2023-03-26T08:28:50.760Z,4.20
2023-03-26T08:31:23.451Z,4.30
2023-03-26T08:33:51.725Z,4.60
2023-03-26T08:36:19.918Z,4.70
2023-03-26T08:38:48.549Z,4.30
2023-03-26T08:41:25.676Z,4.20
2023-03-26T08:44:18.571Z,4.20
2023-03-26T08:46:49.492Z,3.70
2023-03-26T08:49:42.809Z,4.10
2023-03-26T08:52:34.761Z,4.50
2023-03-26T08:55:36.587Z,3.60
2023-03-26T08:58:36.163Z,4.90
2023-03-26T09:01:06.788Z,5.50
2023-03-26T09:03:34.716Z,4.00
2023-03-26T09:06:38.991Z,4.60
2023-03-26T09:09:09.690Z,3.80
2023-03-26T09:12:17.035Z,3.60
2023-03-26T09:15:06.757Z,4.00
2023-03-26T09:17:41.555Z,4.50
2023-03-26T09:20:51.111Z,3.40
2023-03-26T09:23:49.758Z,3.40
2023-03-26T09:26:43.231Z,3.40
2023-03-26T09:29:37.041Z,3.60
2023-03-26T09:32:31.054Z,3.30
2023-03-26T09:35:17.701Z,3.40
2023-03-26T09:38:10.733Z,3.80
2023-03-26T09:41:13.872Z,3.50
2023-03-26T09:43:56.483Z,4.10
2023-03-26T09:46:46.672Z,3.60
2023-03-26T09:49:24.791Z,3.70
2023-03-26T09:52:11.489Z,4.20
2023-03-26T09:54:56.910Z,3.10
2023-03-26T09:57:28.587Z,3.10
2023-03-26T10:00:09.922Z,4.50
2023-03-26T10:03:01.502Z,5.00
2023-03-26T10:05:48.678Z,3.40
2023-03-26T10:08:37.827Z,4.30
2023-03-26T10:11:23.565Z,3.50
2023-03-26T10:14:33.288Z,3.50
2023-03-26T10:17:19.733Z,3.50
2023-03-26T10:20:05.026Z,3.50
2023-03-26T10:23:00.744Z,3.30
2023-03-26T10:25:55.082Z,3.90
2023-03-26T10:28:32.833Z,3.10
2023-03-26T10:31:07.956Z,4.20
2023-03-26T10:34:28.144Z,4.00
2023-03-26T10:37:16.479Z,3.10
2023-03-26T10:39:55.613Z,3.40
2023-03-26T10:43:39.917Z,3.60
2023-03-26T10:46:38.469Z,3.20
2023-03-26T10:49:25.421Z,4.90
2023-03-26T10:51:59.134Z,3.50
2023-03-26T10:54:51.664Z,2.60
2023-03-26T10:57:45.111Z,2.60
2023-03-26T11:00:28.053Z,2.60
2023-03-26T11:03:20.945Z,3.30
2023-03-26T11:06:18.847Z,3.70
2023-03-26T11:09:12.356Z,4.00
2023-03-26T11:11:55.519Z,3.90
2023-03-26T11:14:33.892Z,4.00
2023-03-26T11:17:39.539Z,4.00
2023-03-26T11:20:18.229Z,5.50
2023-03-26T11:23:24.049Z,3.80
2023-03-26T11:25:59.830Z,3.90
2023-03-26T11:29:32.334Z,3.90
2023-03-26T11:32:06.214Z,6.90
2023-03-26T11:34:49.473Z,5.60
2023-03-26T11:37:34.172Z,4.90
2023-03-26T11:40:07.436Z,8.20
2023-03-26T11:42:35.865Z,7.50
2023-03-26T11:45:08.292Z,11.10
2023-03-26T11:47:53.838Z,8.10
2023-03-26T11:50:28.661Z,5.60
2023-03-26T11:53:11.665Z,7.40
2023-03-26T11:55:44.382Z,8.60
2023-03-26T11:58:47.559Z,8.00
2023-03-26T12:01:22.824Z,5.40
2023-03-26T12:03:57.656Z,6.00
2023-03-26T12:06:27.661Z,3.80
2023-03-26T12:08:57.095Z,4.70
2023-03-26T12:11:28.519Z,4.70
2023-03-26T12:14:05.726Z,4.10
2023-03-26T12:16:34.633Z,4.50
2023-03-26T12:19:08.288Z,12.40
2023-03-26T12:21:48.479Z,4.30
2023-03-26T12:24:32.110Z,5.10
2023-03-26T12:27:21.608Z,5.00
2023-03-26T12:30:00.118Z,4.60
2023-03-26T12:32:45.263Z,4.40
2023-03-26T12:35:22.720Z,4.00
2023-03-26T12:37:50.842Z,4.00
2023-03-26T12:40:32.670Z,4.10
2023-03-26T12:44:54.714Z,4.70
2023-03-26T12:46:58.954Z,4.10
2023-03-26T12:48:47.515Z,4.50
2023-03-26T12:51:36.237Z,4.30
2023-03-26T12:54:44.811Z,4.30
2023-03-26T12:57:38.941Z,4.10
2023-03-26T13:00:22.923Z,3.90
2023-03-26T13:02:51.433Z,3.40
2023-03-26T13:05:22.430Z,3.40
2023-03-26T13:08:12.662Z,3.60
2023-03-26T13:10:59.552Z,3.10
2023-03-26T13:13:36.405Z,3.40
2023-03-26T13:16:29.944Z,3.40
2023-03-26T13:19:32.845Z,6.80
2023-03-26T13:22:21.918Z,3.80
2023-03-26T13:25:13.625Z,3.70
2023-03-26T13:28:06.515Z,3.40
2023-03-26T13:30:42.417Z,3.70
2023-03-26T13:33:16.112Z,3.70
2023-03-26T13:36:00.691Z,3.40
2023-03-26T13:38:43.701Z,3.00
2023-03-26T13:41:44.197Z,4.30
2023-03-26T13:44:27.179Z,3.40
2023-03-26T13:47:10.997Z,3.50
2023-03-26T13:49:46.753Z,4.30
2023-03-26T13:52:42.487Z,4.00
2023-03-26T13:55:19.766Z,3.30
2023-03-26T13:58:05.101Z,3.00
2023-03-26T14:00:54.789Z,3.20
2023-03-26T14:03:54.105Z,3.40
2023-03-26T14:06:46.883Z,2.80
2023-03-26T14:09:22.998Z,2.80
2023-03-26T14:11:57.748Z,3.00
2023-03-26T14:14:41.563Z,3.20
2023-03-26T14:17:29.020Z,4.30
2023-03-26T14:20:19.992Z,4.20
2023-03-26T14:23:15.937Z,3.30
2023-03-26T14:26:08.691Z,3.70
2023-03-26T14:29:33.686Z,3.60
2023-03-26T14:32:24.565Z,3.60
2023-03-26T14:35:16.790Z,3.50
2023-03-26T14:38:13.083Z,3.40
2023-03-26T14:41:08.839Z,3.50
2023-03-26T14:44:00.121Z,3.60
2023-03-26T14:46:55.361Z,3.80
2023-03-26T14:49:47.712Z,4.10
2023-03-26T14:52:24.998Z,4.00
2023-03-26T14:54:56.059Z,4.00
2023-03-26T14:57:36.484Z,3.90
2023-03-26T15:00:20.059Z,3.50
2023-03-26T15:03:29.928Z,4.70
2023-03-26T15:06:21.216Z,4.20
2023-03-26T15:09:07.580Z,3.30
2023-03-26T15:12:12.512Z,4.10
2023-03-26T15:15:00.194Z,4.50
2023-03-26T15:17:49.988Z,3.70
2023-03-26T15:20:20.892Z,3.60
2023-03-26T15:23:18.149Z,4.50
2023-03-26T15:26:04.798Z,5.80
2023-03-26T15:29:03.992Z,8.80
2023-03-26T15:31:53.583Z,7.80
2023-03-26T15:34:48.688Z,9.10
2023-03-26T15:37:44.580Z,6.00
2023-03-26T15:40:47.333Z,5.60
2023-03-26T15:43:20.218Z,7.30
2023-03-26T15:46:06.868Z,5.20
2023-03-26T15:49:01.084Z,16.90
2023-03-26T15:51:51.038Z,8.60
2023-03-26T15:54:43.689Z,5.90
2023-03-26T15:57:20.001Z,6.60
2023-03-26T16:00:16.905Z,24.50
2023-03-26T16:03:10.149Z,7.10
2023-03-26T16:06:10.497Z,7.40
2023-03-26T16:09:03.609Z,8.30
2023-03-26T16:11:56.510Z,19.10
2023-03-26T16:14:36.481Z,19.90
2023-03-26T16:17:11.825Z,45.40
2023-03-26T16:19:54.942Z,33.30
2023-03-26T16:22:51.988Z,10.20
2023-03-26T16:25:32.808Z,11.70
2023-03-26T16:28:13.032Z,35.90
2023-03-26T16:30:42.236Z,5.40
2023-03-26T16:33:21.450Z,6.60
2023-03-26T16:36:34.406Z,7.60
2023-03-26T16:39:05.656Z,6.10
2023-03-26T16:41:52.576Z,7.30
2023-03-26T16:44:43.783Z,6.70
2023-03-26T16:47:43.040Z,8.50
2023-03-26T16:50:29.199Z,37.80
2023-03-26T16:53:01.065Z,18.80
2023-03-26T16:55:49.400Z,22.00
2023-03-26T16:58:31.093Z,32.50
2023-03-26T17:01:11.001Z,12.10
2023-03-26T17:03:50.053Z,6.40
2023-03-26T17:06:56.847Z,7.50
2023-03-26T17:09:37.982Z,6.90
2023-03-26T17:12:31.828Z,7.40
2023-03-26T17:15:21.162Z,10.50
2023-03-26T17:18:26.346Z,13.00
2023-03-26T17:20:58.674Z,14.00
2023-03-26T17:23:41.490Z,20.30
2023-03-26T17:26:24.100Z,15.30
2023-03-26T17:29:28.657Z,15.40
2023-03-26T17:32:01.171Z,13.20
2023-03-26T17:34:38.619Z,14.40
2023-03-26T17:37:19.022Z,12.30
2023-03-26T17:39:47.120Z,14.70
2023-03-26T17:42:30.724Z,15.30
2023-03-26T17:45:01.903Z,16.60
2023-03-26T17:47:39.587Z,23.20
2023-03-26T17:50:14.784Z,22.20
2023-03-26T17:52:55.697Z,17.40
2023-03-26T17:55:30.637Z,15.10
2023-03-26T17:58:01.239Z,16.40
2023-03-26T18:00:40.142Z,15.40
2023-03-26T18:03:18.941Z,15.20
2023-03-26T18:05:49.220Z,20.60
2023-03-26T18:08:39.284Z,21.80
2023-03-26T18:11:25.656Z,27.80
2023-03-26T18:14:02.359Z,31.50
2023-03-26T18:16:41.832Z,35.80
2023-03-26T18:19:18.553Z,36.70
2023-03-26T18:21:50.409Z,41.40
2023-03-26T18:24:22.569Z,39.90
2023-03-26T18:27:11.977Z,43.20
2023-03-26T18:30:02.002Z,41.40
2023-03-26T18:32:33.854Z,47.70
2023-03-26T18:35:15.634Z,39.20
2023-03-26T18:37:46.338Z,46.20
2023-03-26T18:40:23.617Z,66.70
2023-03-26T18:42:55.363Z,61.20
2023-03-26T18:45:23.355Z,45.40
2023-03-26T18:47:58.009Z,37.10
2023-03-26T18:50:36.703Z,32.70
2023-03-26T18:53:08.267Z,21.40
2023-03-26T18:55:39.675Z,26.70
2023-03-26T18:58:23.275Z,25.80
2023-03-26T19:00:55.172Z,20.70
2023-03-26T19:03:24.581Z,30.50
2023-03-26T19:05:55.863Z,29.30
2023-03-26T19:08:25.763Z,34.80
2023-03-26T19:10:55.218Z,29.10
2023-03-26T19:13:23.465Z,33.80
2023-03-26T19:15:54.707Z,30.60
2023-03-26T19:18:26.480Z,26.30
2023-03-26T19:20:59.166Z,25.20
2023-03-26T19:23:32.322Z,25.40
2023-03-26T19:26:04.776Z,27.70
2023-03-26T19:28:41.856Z,26.50
2023-03-26T19:31:12.624Z,22.60
2023-03-26T19:33:42.708Z,17.30
2023-03-26T19:36:13.835Z,13.20
2023-03-26T19:38:49.499Z,11.50
2023-03-26T19:41:23.398Z,11.30
2023-03-26T19:43:55.900Z,9.80
2023-03-26T19:46:26.830Z,9.70
2023-03-26T19:48:57.632Z,10.60
2023-03-26T19:51:36.292Z,12.00
2023-03-26T19:54:14.280Z,13.80
2023-03-26T19:56:43.591Z,14.70
2023-03-26T19:59:11.658Z,15.90
2023-03-26T20:01:39.682Z,15.40
2023-03-26T20:04:12.060Z,15.70
2023-03-26T20:06:43.817Z,15.90
2023-03-26T20:09:13.136Z,17.50
2023-03-26T20:11:41.979Z,17.50
2023-03-26T20:14:14.860Z,19.90
2023-03-26T20:16:45.408Z,21.20
2023-03-26T20:22:03.156Z,14.30
2023-03-26T20:24:32.893Z,14.40
2023-03-26T20:27:00.812Z,8.90
2023-03-26T20:29:29.480Z,9.60
2023-03-26T20:31:57.876Z,7.50
2023-03-26T20:34:26.281Z,7.60
2023-03-26T20:36:56.114Z,8.20
2023-03-26T20:39:24.982Z,8.00
2023-03-26T20:41:54.842Z,8.80
2023-03-26T20:44:23.112Z,7.80
2023-03-26T20:46:51.502Z,7.40
2023-03-26T20:49:22.301Z,6.50
2023-03-26T20:51:50.532Z,7.30
2023-03-26T20:54:21.603Z,8.80
2023-03-26T20:56:50.407Z,11.50
2023-03-26T20:59:28.383Z,13.40
2023-03-26T21:01:57.956Z,12.60
2023-03-26T21:04:29.611Z,10.20
2023-03-26T21:07:07.052Z,13.10
2023-03-26T21:09:39.612Z,17.30
2023-03-26T21:12:38.306Z,25.00
2023-03-26T21:15:10.572Z,17.80
2023-03-26T21:17:51.193Z,16.20
2023-03-26T21:20:20.021Z,16.50
2023-03-26T21:22:54.330Z,17.20
2023-03-26T21:25:34.334Z,22.60
2023-03-26T21:28:28.874Z,22.30
2023-03-26T21:31:06.366Z,24.50
2023-03-26T21:33:34.502Z,18.10
2023-03-26T21:36:04.487Z,16.80
2023-03-26T21:38:33.253Z,19.30
2023-03-26T21:41:03.333Z,21.20
2023-03-26T21:43:31.989Z,14.80
2023-03-26T21:46:00.501Z,15.20
2023-03-26T21:48:29.386Z,13.30
2023-03-26T21:51:02.446Z,12.10
2023-03-26T21:53:30.746Z,12.30
2023-03-26T21:56:32.387Z,10.90
2023-03-26T21:59:11.005Z,15.30
2023-03-26T22:02:13.769Z,13.00
2023-03-26T22:04:56.692Z,16.30
2023-03-26T22:07:35.032Z,13.20
2023-03-26T22:10:03.264Z,14.10
2023-03-26T22:12:31.126Z,12.10
2023-03-26T22:14:59.029Z,10.10
2023-03-26T22:17:27.622Z,11.40
2023-03-26T22:19:56.160Z,12.00
2023-03-26T22:22:26.260Z,13.00
2023-03-26T22:24:54.737Z,11.70
2023-03-26T22:27:22.766Z,10.70
2023-03-26T22:29:50.660Z,10.90
2023-03-26T22:32:18.847Z,10.20
2023-03-26T22:34:46.913Z,14.70
2023-03-26T22:37:16.294Z,15.80
2023-03-26T22:39:44.190Z,17.10
2023-03-26T22:42:12.186Z,16.80
2023-03-26T22:44:40.328Z,16.30
2023-03-26T22:47:09.711Z,15.50
2023-03-26T22:49:37.541Z,15.20
2023-03-26T22:52:07.237Z,18.00
2023-03-26T22:54:36.565Z,15.70
2023-03-26T22:57:08.517Z,16.20
2023-03-26T22:59:36.886Z,15.60
2023-03-26T23:02:04.868Z,15.40
2023-03-26T23:04:32.780Z,16.90
2023-03-26T23:07:00.837Z,17.40
2023-03-26T23:09:29.682Z,19.70
2023-03-26T23:12:26.453Z,18.00
2023-03-26T23:14:54.369Z,16.10
2023-03-26T23:17:22.422Z,16.30
2023-03-26T23:19:50.430Z,14.50
2023-03-26T23:22:18.358Z,13.50
2023-03-26T23:24:46.325Z,13.70
2023-03-26T23:27:14.397Z,13.20
2023-03-26T23:29:42.353Z,36.90
2023-03-26T23:32:24.203Z,19.90
2023-03-26T23:34:53.204Z,15.60
2023-03-26T23:37:23.481Z,13.40
2023-03-26T23:39:52.673Z,13.20
2023-03-26T23:42:28.485Z,12.90
2023-03-26T23:44:57.745Z,11.90
2023-03-26T23:47:25.754Z,15.30
2023-03-26T23:49:53.716Z,12.80
2023-03-26T23:52:21.759Z,13.00
2023-03-26T23:54:49.764Z,13.50
2023-03-26T23:57:18.555Z,13.10
2023-03-26T23:59:46.584Z,13.90
